sensor_id;sensor_type;location;lat;lon;timestamp;pressure;altitude;pressure_sealevel;temperature;humidity
20630;BME280;17386;43.846;25.950;2023-08-07T00:00:20;100267.31;;;22.98;nan
20630;BME280;17386;43.846;25.950;2023-08-07T00:02:46;100281.00;;;23.06;nan
20630;BME280;17386;43.846;25.950;2023-08-07T00:05:11;100283.28;;;23.01;nan
20630;BME280;17386;43.846;25.950;2023-08-07T00:07:36;100272.03;;;22.96;nan
20630;BME280;17386;43.846;25.950;2023-08-07T00:10:02;100278.56;;;22.84;nan
20630;BME280;17386;43.846;25.950;2023-08-07T00:12:28;100270.31;;;22.85;nan
20630;BME280;17386;43.846;25.950;2023-08-07T00:14:54;100265.47;;;22.79;nan
20630;BME280;17386;43.846;25.950;2023-08-07T00:17:19;100265.31;;;22.71;nan
20630;BME280;17386;43.846;25.950;2023-08-07T00:19:45;100266.88;;;22.64;nan
20630;BME280;17386;43.846;25.950;2023-08-07T00:22:10;100276.16;;;22.71;nan
20630;BME280;17386;43.846;25.950;2023-08-07T00:24:35;100278.16;;;22.69;nan
20630;BME280;17386;43.846;25.950;2023-08-07T00:27:01;100281.44;;;22.73;nan
20630;BME280;17386;43.846;25.950;2023-08-07T00:29:26;100289.84;;;22.70;nan
20630;BME280;17386;43.846;25.950;2023-08-07T00:31:52;100285.56;;;22.67;nan
20630;BME280;17386;43.846;25.950;2023-08-07T00:34:17;100297.28;;;22.58;nan
20630;BME280;17386;43.846;25.950;2023-08-07T00:36:43;100290.56;;;22.62;nan
20630;BME280;17386;43.846;25.950;2023-08-07T00:39:08;100291.84;;;22.58;nan
20630;BME280;17386;43.846;25.950;2023-08-07T00:41:34;100298.69;;;22.62;nan
20630;BME280;17386;43.846;25.950;2023-08-07T00:44:00;100302.66;;;22.48;nan
20630;BME280;17386;43.846;25.950;2023-08-07T00:46:26;100282.88;;;22.38;nan
20630;BME280;17386;43.846;25.950;2023-08-07T00:48:52;100305.78;;;22.34;nan
20630;BME280;17386;43.846;25.950;2023-08-07T00:51:20;100311.06;;;22.26;nan
20630;BME280;17386;43.846;25.950;2023-08-07T00:53:45;100310.34;;;22.24;nan
20630;BME280;17386;43.846;25.950;2023-08-07T00:56:12;100312.16;;;22.23;nan
20630;BME280;17386;43.846;25.950;2023-08-07T00:58:37;100321.16;;;22.24;nan
20630;BME280;17386;43.846;25.950;2023-08-07T01:01:04;100314.75;;;22.25;nan
20630;BME280;17386;43.846;25.950;2023-08-07T01:03:30;100320.88;;;22.27;nan
20630;BME280;17386;43.846;25.950;2023-08-07T01:05:55;100317.44;;;22.15;nan
20630;BME280;17386;43.846;25.950;2023-08-07T01:08:23;100337.78;;;22.09;nan
20630;BME280;17386;43.846;25.950;2023-08-07T01:13:19;100345.28;;;22.06;nan
20630;BME280;17386;43.846;25.950;2023-08-07T01:15:52;100344.13;;;21.99;nan
20630;BME280;17386;43.846;25.950;2023-08-07T01:18:24;100335.31;;;21.97;nan
20630;BME280;17386;43.846;25.950;2023-08-07T01:20:49;100343.53;;;21.95;nan
20630;BME280;17386;43.846;25.950;2023-08-07T01:23:15;100351.63;;;21.85;nan
20630;BME280;17386;43.846;25.950;2023-08-07T01:25:40;100352.34;;;21.88;nan
20630;BME280;17386;43.846;25.950;2023-08-07T01:28:26;100363.00;;;21.89;nan
20630;BME280;17386;43.846;25.950;2023-08-07T01:30:55;100359.88;;;21.84;nan
20630;BME280;17386;43.846;25.950;2023-08-07T01:33:31;100371.38;;;21.76;nan
20630;BME280;17386;43.846;25.950;2023-08-07T01:35:58;100362.59;;;21.84;nan
20630;BME280;17386;43.846;25.950;2023-08-07T01:38:27;100378.34;;;21.79;nan
20630;BME280;17386;43.846;25.950;2023-08-07T01:40:53;100377.50;;;21.78;nan
20630;BME280;17386;43.846;25.950;2023-08-07T01:43:19;100378.06;;;21.82;nan
20630;BME280;17386;43.846;25.950;2023-08-07T01:45:45;100388.31;;;21.78;nan
20630;BME280;17386;43.846;25.950;2023-08-07T01:48:11;100388.84;;;21.72;nan
20630;BME280;17386;43.846;25.950;2023-08-07T01:50:38;100395.19;;;21.62;nan
20630;BME280;17386;43.846;25.950;2023-08-07T01:53:03;100388.66;;;21.64;nan
20630;BME280;17386;43.846;25.950;2023-08-07T01:55:29;100390.72;;;21.51;nan
20630;BME280;17386;43.846;25.950;2023-08-07T01:57:54;100395.13;;;21.52;nan
20630;BME280;17386;43.846;25.950;2023-08-07T02:00:20;100385.00;;;21.44;nan
20630;BME280;17386;43.846;25.950;2023-08-07T02:02:45;100402.38;;;21.51;nan
20630;BME280;17386;43.846;25.950;2023-08-07T02:05:12;100397.44;;;21.56;nan
20630;BME280;17386;43.846;25.950;2023-08-07T02:07:37;100397.59;;;21.55;nan
20630;BME280;17386;43.846;25.950;2023-08-07T02:10:03;100402.25;;;21.53;nan
20630;BME280;17386;43.846;25.950;2023-08-07T02:12:28;100396.00;;;21.52;nan
20630;BME280;17386;43.846;25.950;2023-08-07T02:14:57;100394.25;;;21.42;nan
20630;BME280;17386;43.846;25.950;2023-08-07T02:17:24;100390.22;;;21.36;nan
20630;BME280;17386;43.846;25.950;2023-08-07T02:19:50;100404.47;;;21.27;nan
20630;BME280;17386;43.846;25.950;2023-08-07T02:22:16;100391.75;;;21.18;nan
20630;BME280;17386;43.846;25.950;2023-08-07T02:24:41;100401.84;;;21.16;nan
20630;BME280;17386;43.846;25.950;2023-08-07T02:27:06;100401.91;;;21.25;nan
20630;BME280;17386;43.846;25.950;2023-08-07T02:29:32;100406.44;;;21.25;nan
20630;BME280;17386;43.846;25.950;2023-08-07T02:32:01;100411.50;;;21.18;nan
20630;BME280;17386;43.846;25.950;2023-08-07T02:34:26;100415.34;;;21.16;nan
20630;BME280;17386;43.846;25.950;2023-08-07T02:36:52;100398.53;;;21.12;nan
20630;BME280;17386;43.846;25.950;2023-08-07T02:39:17;100401.38;;;21.11;nan
20630;BME280;17386;43.846;25.950;2023-08-07T02:41:43;100406.56;;;21.02;nan
20630;BME280;17386;43.846;25.950;2023-08-07T02:44:08;100411.69;;;21.06;nan
20630;BME280;17386;43.846;25.950;2023-08-07T02:46:33;100420.31;;;20.99;nan
20630;BME280;17386;43.846;25.950;2023-08-07T02:49:01;100412.31;;;21.09;nan
20630;BME280;17386;43.846;25.950;2023-08-07T02:51:26;100433.31;;;21.06;nan
20630;BME280;17386;43.846;25.950;2023-08-07T02:53:51;100425.84;;;20.98;nan
20630;BME280;17386;43.846;25.950;2023-08-07T02:56:17;100444.09;;;21.06;nan
20630;BME280;17386;43.846;25.950;2023-08-07T02:58:42;100438.97;;;21.02;nan
20630;BME280;17386;43.846;25.950;2023-08-07T03:01:07;100446.59;;;20.97;nan
20630;BME280;17386;43.846;25.950;2023-08-07T03:03:33;100443.91;;;20.97;nan
20630;BME280;17386;43.846;25.950;2023-08-07T03:05:58;100444.50;;;21.01;nan
20630;BME280;17386;43.846;25.950;2023-08-07T03:08:24;100449.06;;;21.00;nan
20630;BME280;17386;43.846;25.950;2023-08-07T03:10:57;100450.41;;;20.95;nan
20630;BME280;17386;43.846;25.950;2023-08-07T03:13:23;100448.94;;;20.91;nan
20630;BME280;17386;43.846;25.950;2023-08-07T03:15:49;100454.69;;;20.97;nan
20630;BME280;17386;43.846;25.950;2023-08-07T03:18:16;100442.47;;;20.93;nan
20630;BME280;17386;43.846;25.950;2023-08-07T03:20:42;100441.34;;;20.96;nan
20630;BME280;17386;43.846;25.950;2023-08-07T03:23:09;100448.56;;;20.95;nan
20630;BME280;17386;43.846;25.950;2023-08-07T03:25:34;100458.13;;;20.99;nan
20630;BME280;17386;43.846;25.950;2023-08-07T03:28:00;100459.66;;;20.81;nan
20630;BME280;17386;43.846;25.950;2023-08-07T03:30:25;100464.22;;;20.81;nan
20630;BME280;17386;43.846;25.950;2023-08-07T03:32:50;100455.00;;;20.83;nan
20630;BME280;17386;43.846;25.950;2023-08-07T03:35:16;100461.88;;;20.87;nan
20630;BME280;17386;43.846;25.950;2023-08-07T03:37:41;100462.31;;;20.92;nan
20630;BME280;17386;43.846;25.950;2023-08-07T03:40:07;100467.13;;;20.89;nan
20630;BME280;17386;43.846;25.950;2023-08-07T03:42:33;100477.47;;;20.72;nan
20630;BME280;17386;43.846;25.950;2023-08-07T03:44:58;100489.38;;;20.81;nan
20630;BME280;17386;43.846;25.950;2023-08-07T03:47:23;100486.25;;;20.86;nan
20630;BME280;17386;43.846;25.950;2023-08-07T03:49:49;100482.13;;;20.70;nan
20630;BME280;17386;43.846;25.950;2023-08-07T03:52:15;100482.97;;;20.82;nan
20630;BME280;17386;43.846;25.950;2023-08-07T03:54:40;100492.06;;;20.81;nan
20630;BME280;17386;43.846;25.950;2023-08-07T03:57:05;100497.34;;;20.83;nan
20630;BME280;17386;43.846;25.950;2023-08-07T03:59:31;100489.72;;;20.88;nan
20630;BME280;17386;43.846;25.950;2023-08-07T04:01:56;100493.78;;;20.82;nan
20630;BME280;17386;43.846;25.950;2023-08-07T04:04:22;100491.31;;;20.79;nan
20630;BME280;17386;43.846;25.950;2023-08-07T04:06:47;100489.59;;;20.89;nan
20630;BME280;17386;43.846;25.950;2023-08-07T04:09:13;100490.72;;;20.87;nan
20630;BME280;17386;43.846;25.950;2023-08-07T04:11:40;100487.38;;;20.83;nan
20630;BME280;17386;43.846;25.950;2023-08-07T04:14:05;100492.16;;;20.91;nan
20630;BME280;17386;43.846;25.950;2023-08-07T04:16:33;100495.81;;;21.01;nan
20630;BME280;17386;43.846;25.950;2023-08-07T04:18:59;100487.31;;;21.06;nan
20630;BME280;17386;43.846;25.950;2023-08-07T04:21:24;100476.75;;;21.14;nan
20630;BME280;17386;43.846;25.950;2023-08-07T04:23:49;100474.44;;;21.09;nan
20630;BME280;17386;43.846;25.950;2023-08-07T04:26:15;100476.47;;;21.17;nan
20630;BME280;17386;43.846;25.950;2023-08-07T04:28:42;100475.50;;;21.18;nan
20630;BME280;17386;43.846;25.950;2023-08-07T04:31:07;100480.75;;;21.19;nan
20630;BME280;17386;43.846;25.950;2023-08-07T04:33:33;100482.41;;;21.11;nan
20630;BME280;17386;43.846;25.950;2023-08-07T04:35:59;100496.09;;;21.19;nan
20630;BME280;17386;43.846;25.950;2023-08-07T04:38:24;100505.91;;;21.20;nan
20630;BME280;17386;43.846;25.950;2023-08-07T04:40:50;100492.19;;;21.23;nan
20630;BME280;17386;43.846;25.950;2023-08-07T04:43:17;100500.16;;;21.24;nan
20630;BME280;17386;43.846;25.950;2023-08-07T04:45:43;100500.16;;;21.24;nan
20630;BME280;17386;43.846;25.950;2023-08-07T04:48:10;100486.09;;;21.10;nan
20630;BME280;17386;43.846;25.950;2023-08-07T04:50:36;100492.19;;;21.23;nan
20630;BME280;17386;43.846;25.950;2023-08-07T04:53:02;100505.19;;;21.18;nan
20630;BME280;17386;43.846;25.950;2023-08-07T04:55:27;100513.50;;;21.26;nan
20630;BME280;17386;43.846;25.950;2023-08-07T04:57:52;100508.38;;;21.23;nan
20630;BME280;17386;43.846;25.950;2023-08-07T05:00:20;100511.66;;;21.38;nan
20630;BME280;17386;43.846;25.950;2023-08-07T05:02:46;100509.97;;;21.37;nan
20630;BME280;17386;43.846;25.950;2023-08-07T05:05:13;100503.94;;;21.33;nan
20630;BME280;17386;43.846;25.950;2023-08-07T05:07:40;100508.63;;;21.20;nan
20630;BME280;17386;43.846;25.950;2023-08-07T05:10:06;100503.69;;;21.36;nan
20630;BME280;17386;43.846;25.950;2023-08-07T05:12:31;100510.28;;;21.43;nan
20630;BME280;17386;43.846;25.950;2023-08-07T05:14:56;100521.31;;;21.51;nan
20630;BME280;17386;43.846;25.950;2023-08-07T05:17:22;100523.16;;;21.51;nan
20630;BME280;17386;43.846;25.950;2023-08-07T05:19:47;100528.28;;;21.54;nan
20630;BME280;17386;43.846;25.950;2023-08-07T05:22:13;100530.22;;;21.63;nan
20630;BME280;17386;43.846;25.950;2023-08-07T05:24:39;100529.09;;;21.66;nan
20630;BME280;17386;43.846;25.950;2023-08-07T05:27:08;100536.41;;;21.75;nan
20630;BME280;17386;43.846;25.950;2023-08-07T05:29:34;100542.09;;;21.72;nan
20630;BME280;17386;43.846;25.950;2023-08-07T05:32:00;100534.78;;;21.83;nan
20630;BME280;17386;43.846;25.950;2023-08-07T05:34:25;100545.59;;;21.83;nan
20630;BME280;17386;43.846;25.950;2023-08-07T05:36:51;100539.66;;;21.90;nan
20630;BME280;17386;43.846;25.950;2023-08-07T05:39:16;100538.72;;;22.00;nan
20630;BME280;17386;43.846;25.950;2023-08-07T05:41:42;100540.38;;;21.92;nan
20630;BME280;17386;43.846;25.950;2023-08-07T05:44:07;100538.47;;;22.03;nan
20630;BME280;17386;43.846;25.950;2023-08-07T05:46:33;100539.16;;;22.17;nan
20630;BME280;17386;43.846;25.950;2023-08-07T05:48:58;100534.47;;;22.19;nan
20630;BME280;17386;43.846;25.950;2023-08-07T05:51:23;100542.56;;;22.19;nan
20630;BME280;17386;43.846;25.950;2023-08-07T05:53:49;100542.75;;;22.27;nan
20630;BME280;17386;43.846;25.950;2023-08-07T05:56:14;100546.50;;;22.35;nan
20630;BME280;17386;43.846;25.950;2023-08-07T05:58:40;100546.88;;;22.52;nan
20630;BME280;17386;43.846;25.950;2023-08-07T06:01:05;100547.97;;;22.49;nan
20630;BME280;17386;43.846;25.950;2023-08-07T06:03:31;100548.03;;;22.59;nan
20630;BME280;17386;43.846;25.950;2023-08-07T06:05:57;100556.03;;;22.70;nan
20630;BME280;17386;43.846;25.950;2023-08-07T06:08:23;100554.50;;;22.77;nan
20630;BME280;17386;43.846;25.950;2023-08-07T06:10:48;100560.47;;;22.71;nan
20630;BME280;17386;43.846;25.950;2023-08-07T06:13:14;100564.41;;;22.88;nan
20630;BME280;17386;43.846;25.950;2023-08-07T06:15:39;100570.81;;;22.87;nan
20630;BME280;17386;43.846;25.950;2023-08-07T06:18:04;100577.25;;;22.96;nan
20630;BME280;17386;43.846;25.950;2023-08-07T06:20:30;100574.00;;;23.02;nan
20630;BME280;17386;43.846;25.950;2023-08-07T06:22:55;100570.00;;;23.06;nan
20630;BME280;17386;43.846;25.950;2023-08-07T06:25:21;100580.59;;;23.18;nan
20630;BME280;17386;43.846;25.950;2023-08-07T06:27:46;100568.88;;;23.08;nan
20630;BME280;17386;43.846;25.950;2023-08-07T06:30:12;100563.31;;;23.19;nan
20630;BME280;17386;43.846;25.950;2023-08-07T06:32:39;100575.47;;;23.25;nan
20630;BME280;17386;43.846;25.950;2023-08-07T06:35:05;100568.66;;;23.40;nan
20630;BME280;17386;43.846;25.950;2023-08-07T06:37:30;100570.34;;;23.51;nan
20630;BME280;17386;43.846;25.950;2023-08-07T06:39:56;100574.38;;;23.47;nan
20630;BME280;17386;43.846;25.950;2023-08-07T06:42:21;100577.78;;;23.59;nan
20630;BME280;17386;43.846;25.950;2023-08-07T06:44:47;100584.38;;;23.66;nan
20630;BME280;17386;43.846;25.950;2023-08-07T06:47:12;100576.66;;;23.71;nan
20630;BME280;17386;43.846;25.950;2023-08-07T06:49:38;100597.50;;;23.70;nan
20630;BME280;17386;43.846;25.950;2023-08-07T06:52:04;100590.94;;;23.73;nan
20630;BME280;17386;43.846;25.950;2023-08-07T06:54:29;100593.22;;;23.87;nan
20630;BME280;17386;43.846;25.950;2023-08-07T06:56:54;100611.34;;;23.96;nan
20630;BME280;17386;43.846;25.950;2023-08-07T06:59:20;100603.06;;;23.98;nan
20630;BME280;17386;43.846;25.950;2023-08-07T07:01:46;100603.34;;;24.05;nan
20630;BME280;17386;43.846;25.950;2023-08-07T07:04:11;100609.75;;;24.13;nan
20630;BME280;17386;43.846;25.950;2023-08-07T07:06:37;100602.59;;;24.22;nan
20630;BME280;17386;43.846;25.950;2023-08-07T07:09:03;100605.19;;;24.23;nan
20630;BME280;17386;43.846;25.950;2023-08-07T07:11:28;100604.28;;;24.33;nan
20630;BME280;17386;43.846;25.950;2023-08-07T07:13:54;100593.69;;;24.49;nan
20630;BME280;17386;43.846;25.950;2023-08-07T07:16:20;100589.28;;;24.48;nan
20630;BME280;17386;43.846;25.950;2023-08-07T07:18:47;100599.69;;;24.52;nan
20630;BME280;17386;43.846;25.950;2023-08-07T07:21:12;100602.69;;;24.59;nan
20630;BME280;17386;43.846;25.950;2023-08-07T07:23:38;100590.06;;;24.68;nan
20630;BME280;17386;43.846;25.950;2023-08-07T07:26:03;100594.56;;;24.77;nan
20630;BME280;17386;43.846;25.950;2023-08-07T07:28:29;100596.56;;;24.85;nan
20630;BME280;17386;43.846;25.950;2023-08-07T07:30:54;100597.44;;;24.85;nan
20630;BME280;17386;43.846;25.950;2023-08-07T07:33:19;100592.88;;;25.03;nan
20630;BME280;17386;43.846;25.950;2023-08-07T07:35:45;100592.16;;;25.11;nan
20630;BME280;17386;43.846;25.950;2023-08-07T07:38:10;100596.09;;;25.26;nan
20630;BME280;17386;43.846;25.950;2023-08-07T07:40:36;100604.84;;;25.38;nan
20630;BME280;17386;43.846;25.950;2023-08-07T07:43:02;100601.75;;;25.33;nan
20630;BME280;17386;43.846;25.950;2023-08-07T07:45:28;100597.25;;;25.42;nan
20630;BME280;17386;43.846;25.950;2023-08-07T07:47:54;100603.56;;;25.60;nan
20630;BME280;17386;43.846;25.950;2023-08-07T07:50:20;100610.41;;;25.64;nan
20630;BME280;17386;43.846;25.950;2023-08-07T07:52:45;100613.72;;;25.58;nan
20630;BME280;17386;43.846;25.950;2023-08-07T07:55:10;100609.53;;;25.46;nan
20630;BME280;17386;43.846;25.950;2023-08-07T07:57:37;100622.63;;;25.60;nan
20630;BME280;17386;43.846;25.950;2023-08-07T08:00:03;100621.97;;;25.66;nan
20630;BME280;17386;43.846;25.950;2023-08-07T08:02:30;100620.47;;;25.81;nan
20630;BME280;17386;43.846;25.950;2023-08-07T08:04:55;100610.81;;;25.87;nan
20630;BME280;17386;43.846;25.950;2023-08-07T08:07:21;100615.31;;;25.96;nan
20630;BME280;17386;43.846;25.950;2023-08-07T08:09:46;100607.53;;;26.01;nan
20630;BME280;17386;43.846;25.950;2023-08-07T08:12:12;100621.75;;;26.13;nan
20630;BME280;17386;43.846;25.950;2023-08-07T08:14:37;100615.88;;;26.26;nan
20630;BME280;17386;43.846;25.950;2023-08-07T08:17:03;100629.75;;;26.14;nan
20630;BME280;17386;43.846;25.950;2023-08-07T08:19:28;100622.28;;;26.16;nan
20630;BME280;17386;43.846;25.950;2023-08-07T08:21:54;100616.34;;;26.21;nan
20630;BME280;17386;43.846;25.950;2023-08-07T08:24:19;100606.91;;;26.33;nan
20630;BME280;17386;43.846;25.950;2023-08-07T08:26:45;100609.81;;;26.32;nan
20630;BME280;17386;43.846;25.950;2023-08-07T08:29:14;100617.25;;;26.48;nan
20630;BME280;17386;43.846;25.950;2023-08-07T08:31:39;100614.75;;;26.54;nan
20630;BME280;17386;43.846;25.950;2023-08-07T08:34:05;100624.38;;;26.75;nan
20630;BME280;17386;43.846;25.950;2023-08-07T08:36:30;100624.22;;;26.76;nan
20630;BME280;17386;43.846;25.950;2023-08-07T08:38:55;100616.13;;;26.84;nan
20630;BME280;17386;43.846;25.950;2023-08-07T08:41:21;100618.31;;;26.89;nan
20630;BME280;17386;43.846;25.950;2023-08-07T08:43:46;100611.19;;;26.96;nan
20630;BME280;17386;43.846;25.950;2023-08-07T08:46:15;100605.31;;;27.09;nan
20630;BME280;17386;43.846;25.950;2023-08-07T08:48:48;100610.50;;;27.20;nan
20630;BME280;17386;43.846;25.950;2023-08-07T08:51:15;100601.13;;;27.31;nan
20630;BME280;17386;43.846;25.950;2023-08-07T08:53:40;100604.00;;;27.21;nan
20630;BME280;17386;43.846;25.950;2023-08-07T08:56:07;100601.78;;;27.24;nan
20630;BME280;17386;43.846;25.950;2023-08-07T08:58:32;100606.56;;;27.22;nan
20630;BME280;17386;43.846;25.950;2023-08-07T09:00:59;100602.16;;;27.38;nan
20630;BME280;17386;43.846;25.950;2023-08-07T09:03:25;100617.53;;;27.39;nan
20630;BME280;17386;43.846;25.950;2023-08-07T09:05:53;100610.41;;;27.46;nan
20630;BME280;17386;43.846;25.950;2023-08-07T09:08:22;100608.34;;;27.48;nan
20630;BME280;17386;43.846;25.950;2023-08-07T09:10:51;100609.81;;;27.26;nan
20630;BME280;17386;43.846;25.950;2023-08-07T09:13:20;100603.53;;;27.34;nan
20630;BME280;17386;43.846;25.950;2023-08-07T09:15:50;100606.31;;;27.58;nan
20630;BME280;17386;43.846;25.950;2023-08-07T09:18:16;100612.31;;;27.70;nan
20630;BME280;17386;43.846;25.950;2023-08-07T09:20:42;100605.59;;;27.40;nan
20630;BME280;17386;43.846;25.950;2023-08-07T09:23:08;100596.53;;;27.31;nan
20630;BME280;17386;43.846;25.950;2023-08-07T09:25:35;100607.31;;;27.49;nan
20630;BME280;17386;43.846;25.950;2023-08-07T09:28:04;100594.03;;;27.62;nan
20630;BME280;17386;43.846;25.950;2023-08-07T09:30:30;100611.94;;;27.57;nan
20630;BME280;17386;43.846;25.950;2023-08-07T09:33:00;100613.31;;;27.61;nan
20630;BME280;17386;43.846;25.950;2023-08-07T09:35:26;100620.78;;;27.59;nan
20630;BME280;17386;43.846;25.950;2023-08-07T09:37:52;100630.34;;;27.54;nan
20630;BME280;17386;43.846;25.950;2023-08-07T09:40:18;100617.38;;;27.57;nan
20630;BME280;17386;43.846;25.950;2023-08-07T09:42:44;100625.94;;;27.62;nan
20630;BME280;17386;43.846;25.950;2023-08-07T09:47:44;100622.94;;;27.81;nan
20630;BME280;17386;43.846;25.950;2023-08-07T09:50:15;100627.19;;;27.92;nan
20630;BME280;17386;43.846;25.950;2023-08-07T09:52:41;100609.44;;;28.12;nan
20630;BME280;17386;43.846;25.950;2023-08-07T09:55:06;100623.59;;;28.40;nan
20630;BME280;17386;43.846;25.950;2023-08-07T09:57:32;100628.69;;;28.59;nan
20630;BME280;17386;43.846;25.950;2023-08-07T09:59:59;100639.13;;;28.64;nan
20630;BME280;17386;43.846;25.950;2023-08-07T10:02:25;100636.94;;;28.35;nan
20630;BME280;17386;43.846;25.950;2023-08-07T10:04:52;100631.13;;;28.38;nan
20630;BME280;17386;43.846;25.950;2023-08-07T10:07:19;100632.16;;;28.37;nan
20630;BME280;17386;43.846;25.950;2023-08-07T10:09:45;100630.41;;;28.69;nan
20630;BME280;17386;43.846;25.950;2023-08-07T10:12:11;100637.28;;;29.12;nan
20630;BME280;17386;43.846;25.950;2023-08-07T10:14:38;100634.25;;;29.30;nan
20630;BME280;17386;43.846;25.950;2023-08-07T10:17:05;100630.94;;;29.42;nan
20630;BME280;17386;43.846;25.950;2023-08-07T10:19:32;100631.69;;;29.67;nan
20630;BME280;17386;43.846;25.950;2023-08-07T10:21:58;100620.88;;;30.20;nan
20630;BME280;17386;43.846;25.950;2023-08-07T10:24:27;100619.63;;;30.22;nan
20630;BME280;17386;43.846;25.950;2023-08-07T10:26:54;100605.66;;;31.21;nan
20630;BME280;17386;43.846;25.950;2023-08-07T10:29:20;100613.06;;;31.93;nan
20630;BME280;17386;43.846;25.950;2023-08-07T10:31:49;100605.19;;;32.60;nan
20630;BME280;17386;43.846;25.950;2023-08-07T10:34:15;100591.94;;;33.18;nan
20630;BME280;17386;43.846;25.950;2023-08-07T10:36:41;100595.34;;;34.08;nan
20630;BME280;17386;43.846;25.950;2023-08-07T10:39:12;100591.00;;;34.92;nan
20630;BME280;17386;43.846;25.950;2023-08-07T10:41:42;100587.28;;;35.18;nan
20630;BME280;17386;43.846;25.950;2023-08-07T10:46:55;100589.13;;;35.44;nan
20630;BME280;17386;43.846;25.950;2023-08-07T10:52:02;100591.34;;;35.15;nan
20630;BME280;17386;43.846;25.950;2023-08-07T10:54:28;100580.16;;;34.90;nan
20630;BME280;17386;43.846;25.950;2023-08-07T10:56:54;100585.66;;;35.03;nan
20630;BME280;17386;43.846;25.950;2023-08-07T10:59:22;100582.50;;;35.45;nan
20630;BME280;17386;43.846;25.950;2023-08-07T11:01:51;100598.53;;;35.99;nan
20630;BME280;17386;43.846;25.950;2023-08-07T11:04:17;100579.53;;;34.88;nan
20630;BME280;17386;43.846;25.950;2023-08-07T11:06:46;100579.13;;;35.36;nan
20630;BME280;17386;43.846;25.950;2023-08-07T11:09:12;100577.59;;;35.08;nan
20630;BME280;17386;43.846;25.950;2023-08-07T11:11:44;100577.78;;;35.52;nan
20630;BME280;17386;43.846;25.950;2023-08-07T11:14:12;100568.72;;;35.38;nan
20630;BME280;17386;43.846;25.950;2023-08-07T11:16:39;100569.75;;;34.99;nan
20630;BME280;17386;43.846;25.950;2023-08-07T11:19:05;100565.41;;;34.38;nan
20630;BME280;17386;43.846;25.950;2023-08-07T11:21:31;100540.94;;;34.81;nan
20630;BME280;17386;43.846;25.950;2023-08-07T11:23:56;100564.06;;;34.87;nan
20630;BME280;17386;43.846;25.950;2023-08-07T11:26:22;100546.56;;;34.28;nan
20630;BME280;17386;43.846;25.950;2023-08-07T11:28:50;100548.84;;;33.39;nan
20630;BME280;17386;43.846;25.950;2023-08-07T11:31:19;100559.88;;;32.91;nan
20630;BME280;17386;43.846;25.950;2023-08-07T11:33:45;100560.13;;;32.61;nan
20630;BME280;17386;43.846;25.950;2023-08-07T11:36:12;100551.75;;;32.42;nan
20630;BME280;17386;43.846;25.950;2023-08-07T11:38:42;100554.84;;;31.82;nan
20630;BME280;17386;43.846;25.950;2023-08-07T11:41:08;100561.72;;;31.72;nan
20630;BME280;17386;43.846;25.950;2023-08-07T11:43:35;100556.34;;;31.42;nan
20630;BME280;17386;43.846;25.950;2023-08-07T11:46:03;100539.63;;;31.22;nan
20630;BME280;17386;43.846;25.950;2023-08-07T11:48:30;100554.91;;;31.25;nan
20630;BME280;17386;43.846;25.950;2023-08-07T11:50:57;100557.72;;;31.17;nan
20630;BME280;17386;43.846;25.950;2023-08-07T11:53:24;100533.81;;;31.11;nan
20630;BME280;17386;43.846;25.950;2023-08-07T11:55:56;100551.06;;;30.90;nan
20630;BME280;17386;43.846;25.950;2023-08-07T11:58:22;100549.53;;;30.87;nan
20630;BME280;17386;43.846;25.950;2023-08-07T12:00:49;100536.31;;;30.61;nan
20630;BME280;17386;43.846;25.950;2023-08-07T12:03:28;100539.31;;;30.66;nan
20630;BME280;17386;43.846;25.950;2023-08-07T12:05:58;100549.66;;;30.79;nan
20630;BME280;17386;43.846;25.950;2023-08-07T12:08:25;100545.69;;;30.67;nan
20630;BME280;17386;43.846;25.950;2023-08-07T12:10:56;100536.78;;;30.50;nan
20630;BME280;17386;43.846;25.950;2023-08-07T12:13:25;100538.59;;;30.28;nan
20630;BME280;17386;43.846;25.950;2023-08-07T12:15:56;100529.81;;;30.47;nan
20630;BME280;17386;43.846;25.950;2023-08-07T12:18:23;100528.09;;;30.61;nan
20630;BME280;17386;43.846;25.950;2023-08-07T12:20:50;100532.75;;;30.75;nan
20630;BME280;17386;43.846;25.950;2023-08-07T12:23:17;100532.25;;;30.72;nan
20630;BME280;17386;43.846;25.950;2023-08-07T12:25:43;100525.63;;;30.66;nan
20630;BME280;17386;43.846;25.950;2023-08-07T12:28:09;100530.44;;;30.64;nan
20630;BME280;17386;43.846;25.950;2023-08-07T12:30:35;100528.25;;;30.60;nan
20630;BME280;17386;43.846;25.950;2023-08-07T12:33:00;100525.28;;;30.69;nan
20630;BME280;17386;43.846;25.950;2023-08-07T12:35:26;100523.28;;;30.78;nan
20630;BME280;17386;43.846;25.950;2023-08-07T12:37:53;100525.63;;;30.81;nan
20630;BME280;17386;43.846;25.950;2023-08-07T12:40:18;100529.13;;;30.90;nan
20630;BME280;17386;43.846;25.950;2023-08-07T12:42:46;100527.31;;;30.97;nan
20630;BME280;17386;43.846;25.950;2023-08-07T12:45:11;100533.94;;;31.02;nan
20630;BME280;17386;43.846;25.950;2023-08-07T12:47:37;100533.06;;;31.02;nan
20630;BME280;17386;43.846;25.950;2023-08-07T12:50:02;100539.16;;;30.83;nan
20630;BME280;17386;43.846;25.950;2023-08-07T12:52:28;100543.03;;;30.73;nan
20630;BME280;17386;43.846;25.950;2023-08-07T12:54:54;100536.25;;;30.69;nan
20630;BME280;17386;43.846;25.950;2023-08-07T12:57:20;100536.13;;;30.77;nan
20630;BME280;17386;43.846;25.950;2023-08-07T12:59:45;100534.25;;;30.78;nan
20630;BME280;17386;43.846;25.950;2023-08-07T13:02:11;100541.22;;;30.81;nan
20630;BME280;17386;43.846;25.950;2023-08-07T13:04:36;100543.97;;;30.81;nan